DEGTD EDLP-EDDG
Flight info
| Callsign | DEGTD |
|---|---|
| Flight time | N/A |
| Altitude | |
| Route | DCT |
| Aircraft |
Departure
| Time | 2026-04-28 19:57 |
|---|---|
| Airport | Paderborn Lippstadt Airport (EDLP) |
Arrival
| Time | N/A |
|---|---|
| Airport | Münster Osnabrück Airport (EDDG) |
| Time | Latitude | Longitude | Altitude | Speed | Heading |
|---|---|---|---|---|---|
| 2026-04-28 19:57 | 51.53262 | 8.56591 | 1642 ft | 77 kts | 123° |
| 2026-04-28 19:57 | 51.53060 | 8.57294 | 1802 ft | 64 kts | 99° |
| 2026-04-28 19:58 | 51.52915 | 8.57937 | 1879 ft | 63 kts | 110° |
| 2026-04-28 19:58 | 51.52710 | 8.58587 | 1917 ft | 66 kts | 107° |
| 2026-04-28 19:58 | 51.52593 | 8.59247 | 2061 ft | 56 kts | 88° |
| 2026-04-28 19:58 | 51.52532 | 8.59879 | 2182 ft | 62 kts | 101° |
| 2026-04-28 19:59 | 51.52463 | 8.60569 | 2220 ft | 62 kts | 71° |
| 2026-04-28 19:59 | 51.52931 | 8.60818 | 2162 ft | 92 kts | 6° |
| 2026-04-28 19:59 | 51.53545 | 8.60424 | 2168 ft | 95 kts | 352° |
| 2026-04-28 19:59 | 51.54234 | 8.59892 | 2112 ft | 127 kts | 348° |
| 2026-04-28 20:00 | 51.55114 | 8.59317 | 2116 ft | 146 kts | 351° |
| 2026-04-28 20:00 | 51.56077 | 8.58733 | 2065 ft | 139 kts | 350° |
| 2026-04-28 20:00 | 51.56957 | 8.58181 | 2041 ft | 132 kts | 350° |
| 2026-04-28 20:00 | 51.57698 | 8.57760 | 1995 ft | 100 kts | 356° |
| 2026-04-28 20:01 | 51.58324 | 8.57472 | 1880 ft | 84 kts | 1° |
| 2026-04-28 20:01 | 51.58856 | 8.57305 | 1748 ft | 74 kts | 10° |
| 2026-04-28 20:01 | 51.59327 | 8.57358 | 1576 ft | 59 kts | 21° |
| 2026-04-28 20:01 | 51.59671 | 8.57622 | 1393 ft | 54 kts | 44° |
| 2026-04-28 20:02 | 51.59924 | 8.58028 | 1213 ft | 49 kts | 56° |
| 2026-04-28 20:02 | 51.60121 | 8.58468 | 1081 ft | 49 kts | 57° |
| 2026-04-28 20:02 | 51.60311 | 8.58931 | 962 ft | 53 kts | 56° |
| 2026-04-28 20:02 | 51.60514 | 8.59431 | 861 ft | 62 kts | 59° |
| 2026-04-28 20:03 | 51.60728 | 8.59972 | 754 ft | 47 kts | 61° |
| 2026-04-28 20:03 | 51.60896 | 8.60382 | 718 ft | 34 kts | 59° |
| 2026-04-28 20:03 | 51.61031 | 8.60714 | 712 ft | 54 kts | 57° |
| 2026-04-28 20:03 | 51.61317 | 8.61374 | 830 ft | 84 kts | 56° |
| 2026-04-28 20:04 | 51.61681 | 8.62246 | 1093 ft | 100 kts | 58° |
| 2026-04-28 20:04 | 51.62070 | 8.63240 | 1110 ft | 100 kts | 58° |
| 2026-04-28 20:04 | 51.62538 | 8.63890 | 1208 ft | 89 kts | 22° |
| 2026-04-28 20:04 | 51.63113 | 8.63710 | 1300 ft | 89 kts | 326° |
| 2026-04-28 20:05 | 51.63241 | 8.62687 | 1370 ft | 107 kts | 255° |
| 2026-04-28 20:05 | 51.62941 | 8.61553 | 1540 ft | 111 kts | 244° |
| 2026-04-28 20:05 | 51.62696 | 8.60773 | 1637 ft | 116 kts | 238° |
| 2026-04-28 20:05 | 51.62313 | 8.59636 | 1679 ft | 114 kts | 237° |
| 2026-04-28 20:06 | 51.61924 | 8.58556 | 1724 ft | 111 kts | 235° |
| 2026-04-28 20:06 | 51.61500 | 8.57498 | 1759 ft | 105 kts | 216° |
| 2026-04-28 20:06 | 51.60831 | 8.57259 | 1550 ft | 95 kts | 160° |
| 2026-04-28 20:06 | 51.60323 | 8.57803 | 1302 ft | 84 kts | 126° |
| 2026-04-28 20:07 | 51.60227 | 8.58643 | 1084 ft | 85 kts | 69° |
| 2026-04-28 20:07 | 51.60408 | 8.59193 | 964 ft | 82 kts | 57° |
| 2026-04-28 20:07 | 51.60756 | 8.60009 | 801 ft | 53 kts | 58° |
| 2026-04-28 20:07 | 51.60940 | 8.60480 | 717 ft | 40 kts | 60° |
| 2026-04-28 20:08 | 51.61106 | 8.60891 | 710 ft | 64 kts | 57° |
| 2026-04-28 20:08 | 51.61418 | 8.61624 | 819 ft | 93 kts | 57° |
| 2026-04-28 20:08 | 51.61808 | 8.62536 | 1172 ft | 99 kts | 57° |
| 2026-04-28 20:08 | 51.62210 | 8.63481 | 1506 ft | 103 kts | 56° |
| 2026-04-28 20:09 | 51.62784 | 8.64046 | 1851 ft | 107 kts | 15° |
| 2026-04-28 20:09 | 51.63535 | 8.63560 | 1890 ft | 128 kts | 322° |
| 2026-04-28 20:09 | 51.63714 | 8.62160 | 1900 ft | 132 kts | 256° |
| 2026-04-28 20:09 | 51.63347 | 8.60777 | 1811 ft | 134 kts | 238° |
| 2026-04-28 20:10 | 51.62900 | 8.59509 | 1851 ft | 127 kts | 232° |
| 2026-04-28 20:10 | 51.62419 | 8.58315 | 1908 ft | 129 kts | 231° |
| 2026-04-28 20:10 | 51.61903 | 8.57121 | 1986 ft | 131 kts | 230° |
| 2026-04-28 20:10 | 51.61297 | 8.56238 | 1998 ft | 103 kts | 190° |
| 2026-04-28 20:11 | 51.60611 | 8.56234 | 1775 ft | 103 kts | 150° |
| 2026-04-28 20:11 | 51.60035 | 8.56751 | 1676 ft | 89 kts | 127° |
| 2026-04-28 20:11 | 51.59819 | 8.57648 | 1532 ft | 85 kts | 85° |
| 2026-04-28 20:11 | 51.60103 | 8.58462 | 1276 ft | 84 kts | 56° |
| 2026-04-28 20:12 | 51.60214 | 8.58709 | 1200 ft | 76 kts | 58° |
| 2026-04-28 20:12 | 51.60335 | 8.58978 | 1098 ft | 65 kts | 57° |
| 2026-04-28 20:12 | 51.60571 | 8.59556 | 887 ft | 65 kts | 58° |